Time;durP1;ratioP1;P1;durP2;ratioP2;P2;SDS_P1;SDS_P2;PMS_P1;PMS_P2;Temp;Humidity;BMP_temperature;BMP_pressure;BME280_temperature;BME280_humidity;BME280_pressure;Samples;Min_cycle;Max_cycle;Signal;HPM_P1;HPM_P2
2022/09/05 00:02:05;;;;;;;2.92;1.35;;;;;;;17.14;42.76;99852.81;5135798;27;20034;-64
2022/09/05 00:05:05;;;;;;;2.97;1.10;;;;;;;17.13;42.66;99849.31;5150946;27;20115;-66
2022/09/05 00:08:01;;;;;;;4.15;1.25;;;;;;;17.13;42.94;99856.50;5140826;27;20031;-64
2022/09/05 00:10:47;;;;;;;2.95;1.00;;;;;;;17.14;42.87;99852.81;5136366;27;20228;-63
2022/09/05 00:13:29;;;;;;;2.15;1.17;;;;;;;17.14;42.79;99855.47;5150790;27;20039;-64
2022/09/05 00:16:02;;;;;;;1.75;0.88;;;;;;;17.13;42.98;99851.16;5149067;27;20026;-64
2022/09/05 00:18:45;;;;;;;2.25;1.33;;;;;;;17.14;42.93;99858.16;5146193;27;20027;-65
2022/09/05 00:21:32;;;;;;;2.90;1.35;;;;;;;17.13;42.79;99846.63;5150185;27;20070;-65
2022/09/05 00:24:09;;;;;;;2.72;1.30;;;;;;;17.15;42.93;99844.66;5150422;27;20019;-66
2022/09/05 00:26:53;;;;;;;6.28;1.40;;;;;;;17.15;42.83;99849.13;5150037;27;20019;-65
2022/09/05 00:29:39;;;;;;;4.13;1.67;;;;;;;17.13;43.02;99845.81;5148297;27;20090;-66
2022/09/05 00:32:20;;;;;;;3.13;1.35;;;;;;;17.14;42.93;99839.44;5153444;27;20027;-65
2022/09/05 00:35:08;;;;;;;1.58;1.08;;;;;;;17.15;42.86;99849.13;5153425;27;20052;-66
2022/09/05 00:37:46;;;;;;;2.22;1.08;;;;;;;17.15;43.12;99841.97;5166039;27;20053;-63
2022/09/05 00:40:21;;;;;;;2.60;1.27;;;;;;;17.14;42.93;99834.94;5129752;27;20036;-66
2022/09/05 00:42:51;;;;;;;2.00;1.13;;;;;;;17.13;43.02;99830.59;5155044;27;20142;-66
2022/09/05 00:45:26;;;;;;;1.70;1.00;;;;;;;17.14;42.96;99836.75;5152237;27;20016;-65
2022/09/05 00:47:56;;;;;;;2.95;1.38;;;;;;;17.11;43.20;99831.75;5148756;27;20035;-64
2022/09/05 00:50:36;;;;;;;4.13;1.30;;;;;;;17.12;43.11;99830.75;5147658;27;20088;-64
2022/09/05 00:53:24;;;;;;;1.90;1.20;;;;;;;17.08;42.90;99828.38;5149544;27;20047;-64
2022/09/05 00:56:02;;;;;;;2.92;1.48;;;;;;;17.09;43.27;99831.88;5150985;27;20031;-67
2022/09/05 00:58:43;;;;;;;2.28;1.35;;;;;;;17.07;43.06;99825.84;5147116;27;20047;-66
2022/09/05 01:01:42;;;;;;;2.40;1.27;;;;;;;17.06;43.23;99829.53;5132039;27;20027;-65
2022/09/05 01:04:10;;;;;;;2.97;1.20;;;;;;;17.06;43.20;99819.69;5149539;27;20023;-66
2022/09/05 01:07:02;;;;;;;3.13;1.63;;;;;;;17.06;43.15;99816.16;5149568;27;20128;-64
2022/09/05 01:10:02;;;;;;;2.00;1.30;;;;;;;17.05;43.27;99823.34;5143063;27;20130;-64
2022/09/05 01:12:45;;;;;;;1.95;1.20;;;;;;;17.02;43.08;99818.31;5096002;27;20034;-65
2022/09/05 01:15:32;;;;;;;2.65;1.20;;;;;;;17.05;43.04;99823.34;5149439;27;20050;-64
2022/09/05 01:18:23;;;;;;;2.85;1.40;;;;;;;17.03;43.26;99816.50;5148656;27;20050;-64
2022/09/05 01:21:09;;;;;;;1.63;1.13;;;;;;;17.02;43.44;99815.63;5137818;27;20047;-66
2022/09/05 01:23:50;;;;;;;2.70;1.33;;;;;;;17.03;43.10;99811.97;5149388;27;20027;-67
2022/09/05 01:26:37;;;;;;;2.97;1.30;;;;;;;17.02;43.09;99810.28;5148919;27;20015;-66
2022/09/05 01:29:36;;;;;;;1.90;1.30;;;;;;;17.01;43.29;99811.28;5148690;27;20023;-65
2022/09/05 01:32:26;;;;;;;2.15;1.10;;;;;;;17.01;43.17;99808.59;5147411;27;20208;-66
2022/09/05 01:35:28;;;;;;;5.65;1.52;;;;;;;17.00;43.14;99809.59;5149111;27;20023;-66
2022/09/05 01:38:20;;;;;;;2.50;1.27;;;;;;;17.00;43.24;99808.78;5148427;27;20069;-67
2022/09/05 01:40:54;;;;;;;;;;;;;;;16.95;43.12;99811.06;5147368;27;20031;-68
2022/09/05 01:43:29;;;;;;;3.20;1.10;;;;;;;16.96;43.23;99808.25;5148954;27;19994;-66
2022/09/05 01:46:08;;;;;;;3.22;1.27;;;;;;;16.98;43.12;99800.94;5148706;27;20296;-65
2022/09/05 01:49:19;;;;;;;2.47;1.17;;;;;;;16.98;43.40;99800.94;5148783;27;20023;-66
2022/09/05 01:52:00;;;;;;;1.83;1.15;;;;;;;16.97;43.26;99796.56;5064795;28;20021;-69
2022/09/05 01:54:56;;;;;;;1.02;0.65;;;;;;;16.98;43.40;99792.06;5066161;28;20033;-65
2022/09/05 01:57:50;;;;;;;2.95;1.33;;;;;;;16.98;43.38;99806.28;5133861;27;20035;-65
2022/09/05 02:01:11;;;;;;;2.60;1.20;;;;;;;16.98;43.43;99800.06;5144208;27;20042;-68
2022/09/05 02:04:18;;;;;;;3.15;1.40;;;;;;;16.97;43.54;99788.56;5065843;28;20072;-68
2022/09/05 02:06:56;;;;;;;2.17;1.10;;;;;;;16.99;43.58;99801.75;5148062;27;20023;-69
2022/09/05 02:09:37;;;;;;;3.20;1.63;;;;;;;17.00;43.54;99803.44;5148518;27;20030;-66
2022/09/05 02:12:18;;;;;;;1.98;1.20;;;;;;;16.99;43.60;99797.22;5140333;27;20031;-66
2022/09/05 02:14:53;;;;;;;1.88;1.10;;;;;;;17.00;43.69;99809.59;5139261;27;20114;-70
2022/09/05 02:17:22;;;;;;;3.10;1.30;;;;;;;17.02;43.59;99820.16;5147744;27;20046;-69
2022/09/05 02:20:15;;;;;;;2.00;1.00;;;;;;;17.02;43.67;99817.50;5148208;27;20038;-67
2022/09/05 02:22:44;;;;;;;1.55;0.95;;;;;;;17.02;43.67;99814.81;5146453;27;20054;-65
2022/09/05 02:25:19;;;;;;;5.88;1.75;;;;;;;17.02;43.42;99806.78;5148567;27;20084;-67
2022/09/05 02:28:07;;;;;;;1.98;1.20;;;;;;;17.01;43.73;99816.63;5147787;27;20277;-66
2022/09/05 02:30:38;;;;;;;2.40;1.40;;;;;;;17.00;43.57;99814.13;5137031;27;20180;-66
2022/09/05 02:33:22;;;;;;;;;;;;;;;16.94;43.60;99818.22;5125272;28;20264;-67
2022/09/05 02:35:50;;;;;;;3.50;1.65;;;;;;;16.97;43.47;99811.75;5127340;27;20109;-64
2022/09/05 02:38:32;;;;;;;4.90;1.58;;;;;;;16.98;43.33;99822.31;5138363;27;20035;-67
2022/09/05 02:41:06;;;;;;;2.78;1.27;;;;;;;16.99;43.52;99813.28;5126960;28;20042;-66
2022/09/05 02:43:48;;;;;;;4.00;1.00;;;;;;;16.99;43.75;99807.09;5128936;27;20027;-64
2022/09/05 02:46:28;;;;;;;3.38;1.50;;;;;;;17.00;43.60;99819.47;5127291;27;20187;-67
2022/09/05 02:49:03;;;;;;;2.50;1.20;;;;;;;17.00;43.58;99812.28;5146558;27;20251;-64
2022/09/05 02:51:52;;;;;;;2.17;1.20;;;;;;;17.02;43.63;99809.47;5129791;28;20117;-66
2022/09/05 02:54:29;;;;;;;2.13;1.10;;;;;;;17.03;43.72;99817.31;5128713;27;20023;-65
2022/09/05 02:56:58;;;;;;;2.72;1.15;;;;;;;17.06;43.63;99813.47;5138104;27;20049;-67
2022/09/05 02:59:52;;;;;;;2.72;1.02;;;;;;;17.06;43.62;99813.47;5147645;27;20035;-67
2022/09/05 03:02:50;;;;;;;1.95;1.10;;;;;;;17.06;43.73;99817.00;5117287;27;20067;-66
2022/09/05 03:06:00;;;;;;;2.90;1.27;;;;;;;17.04;43.93;99815.50;5129900;27;20208;-65
2022/09/05 03:08:51;;;;;;;3.63;1.33;;;;;;;17.06;43.77;99819.69;5149009;27;20023;-66
2022/09/05 03:11:54;;;;;;;3.13;1.20;;;;;;;17.06;43.96;99819.69;5168390;27;20236;-68
2022/09/05 03:14:34;;;;;;;2.25;1.17;;;;;;;17.05;43.89;99814.50;5153943;27;20047;-68
2022/09/05 03:17:37;;;;;;;1.97;1.17;;;;;;;17.06;44.01;99810.81;5126860;27;20023;-66
2022/09/05 03:20:50;;;;;;;3.70;1.20;;;;;;;17.06;43.69;99810.81;5126833;27;20253;-68
2022/09/05 03:23:21;;;;;;;1.63;0.90;;;;;;;17.06;43.76;99814.34;5124547;27;20062;-66
2022/09/05 03:26:25;;;;;;;2.38;1.20;;;;;;;17.07;43.80;99810.66;5128710;27;20023;-67
2022/09/05 03:29:15;;;;;;;1.95;1.00;;;;;;;17.08;43.80;99820.38;5044812;28;20057;-65
2022/09/05 03:32:02;;;;;;;1.92;1.10;;;;;;;17.08;43.87;99825.72;5123318;27;20032;-65
2022/09/05 03:34:42;;;;;;;5.30;1.48;;;;;;;17.08;44.03;99812.34;5126325;27;20237;-64
2022/09/05 03:37:23;;;;;;;5.63;0.90;;;;;;;17.10;43.95;99816.69;5126820;27;20100;-66
2022/09/05 03:40:06;;;;;;;1.70;1.00;;;;;;;17.12;44.11;99815.53;5145570;27;20031;-68
2022/09/05 03:42:44;;;;;;;3.78;1.30;;;;;;;17.15;44.09;99814.38;5147100;27;20054;-67
2022/09/05 03:45:21;;;;;;;1.75;0.98;;;;;;;17.17;44.06;99820.41;5145228;27;20019;-67
2022/09/05 03:48:08;;;;;;;1.73;0.88;;;;;;;17.16;44.26;99813.38;5148980;27;20205;-67
2022/09/05 03:50:36;;;;;;;3.70;1.08;;;;;;;17.15;44.06;99814.38;5168798;27;20026;-66
2022/09/05 03:53:01;;;;;;;2.50;0.98;;;;;;;17.15;44.18;99811.72;5171868;27;20235;-68
2022/09/05 03:55:42;;;;;;;2.35;1.00;;;;;;;17.16;44.19;99816.06;5165972;27;20031;-67
2022/09/05 03:58:20;;;;;;;3.33;1.40;;;;;;;17.15;44.02;99817.91;5150667;27;20139;-68
2022/09/05 04:01:17;;;;;;;2.28;0.98;;;;;;;17.15;43.82;99807.22;5150898;27;20058;-67
2022/09/05 04:04:00;;;;;;;2.58;1.45;;;;;;;17.17;43.98;99812.41;5136387;27;20049;-68
2022/09/05 04:06:36;;;;;;;2.42;0.95;;;;;;;17.19;44.11;99815.75;5144868;27;20023;-66
2022/09/05 04:09:22;;;;;;;1.90;0.70;;;;;;;17.18;43.76;99806.06;5130195;27;20027;-66
2022/09/05 04:11:56;;;;;;;2.00;1.00;;;;;;;17.18;43.68;99808.72;5130093;28;20160;-66
2022/09/05 04:14:51;;;;;;;2.35;1.33;;;;;;;17.20;43.87;99812.94;5138163;27;20053;-68
2022/09/05 04:17:41;;;;;;;2.70;0.95;;;;;;;17.20;43.79;99814.75;5136411;27;20063;-66
2022/09/05 04:20:15;;;;;;;2.42;1.13;;;;;;;17.22;43.76;99818.13;5129862;27;20027;-65
2022/09/05 04:23:04;;;;;;;1.38;1.00;;;;;;;17.23;43.72;99815.28;5144689;27;20282;-67
2022/09/05 04:25:51;;;;;;;1.67;1.00;;;;;;;17.24;43.85;99824.97;5149879;27;20177;-65
2022/09/05 04:28:50;;;;;;;2.22;1.45;;;;;;;17.25;43.77;99817.81;5136268;27;20099;-69
2022/09/05 04:31:20;;;;;;;2.58;0.90;;;;;;;17.24;43.42;99816.13;5129575;27;20047;-69
2022/09/05 04:34:15;;;;;;;3.72;1.00;;;;;;;17.25;43.77;99815.13;5149852;27;20083;-67
2022/09/05 04:36:44;;;;;;;2.00;1.35;;;;;;;17.25;43.83;99815.13;5150049;27;20248;-69
2022/09/05 04:39:18;;;;;;;1.55;1.10;;;;;;;17.27;43.78;99809.63;5132043;27;20031;-70
2022/09/05 04:42:04;;;;;;;2.60;1.10;;;;;;;17.28;43.51;99812.13;5129788;27;20047;-69
2022/09/05 04:44:36;;;;;;;1.67;1.00;;;;;;;17.31;43.73;99811.81;5149545;27;20022;-68
2022/09/05 04:47:19;;;;;;;1.63;1.10;;;;;;;17.32;43.66;99810.81;5149869;27;20356;-69
2022/09/05 04:50:13;;;;;;;2.05;1.27;;;;;;;17.31;43.42;99806.47;5149275;27;20034;-68
2022/09/05 04:53:05;;;;;;;2.13;1.40;;;;;;;17.33;43.41;99809.00;5139878;27;20031;-69
2022/09/05 04:55:46;;;;;;;1.60;0.95;;;;;;;17.35;43.47;99815.84;5149745;27;20111;-67
2022/09/05 04:58:32;;;;;;;2.23;1.10;;;;;;;17.39;43.35;99816.38;5146748;27;20089;-68
2022/09/05 05:01:07;;;;;;;1.95;1.10;;;;;;;17.42;43.36;99815.25;5132429;27;20279;-68
2022/09/05 05:03:34;;;;;;;1.98;0.75;;;;;;;17.46;43.17;99806.72;5148595;27;20110;-70
2022/09/05 05:06:06;;;;;;;1.77;1.13;;;;;;;17.52;43.21;99810.59;5149554;27;20085;-67
2022/09/05 05:08:59;;;;;;;2.22;1.48;;;;;;;17.56;42.54;99808.44;5144487;27;20159;-69
2022/09/05 05:11:45;;;;;;;1.90;1.27;;;;;;;17.61;42.61;99811.47;5135897;27;20047;-70
2022/09/05 05:14:25;;;;;;;2.72;1.17;;;;;;;17.64;42.61;99809.31;5148989;27;20045;-69
2022/09/05 05:17:06;;;;;;;3.72;1.83;;;;;;;17.66;42.46;99801.97;5149335;27;20038;-68
2022/09/05 05:19:38;;;;;;;2.25;1.20;;;;;;;17.69;42.29;99800.81;5141828;27;20028;-67
2022/09/05 05:22:05;;;;;;;3.67;1.48;;;;;;;17.74;42.01;99805.66;5135160;27;20207;-67
2022/09/05 05:24:34;;;;;;;2.03;1.30;;;;;;;17.78;42.21;99812.38;5149255;27;20035;-65
2022/09/05 05:27:17;;;;;;;2.30;1.48;;;;;;;17.82;41.78;99811.91;5149157;27;20019;-69
2022/09/05 05:30:12;;;;;;;3.63;1.70;;;;;;;17.84;41.76;99809.06;5144908;27;20050;-66
2022/09/05 05:32:44;;;;;;;4.00;1.42;;;;;;;17.83;41.71;99808.22;5153518;27;20038;-67
2022/09/05 05:35:12;;;;;;;2.33;1.27;;;;;;;17.84;41.85;99809.91;5150887;27;20029;-68
2022/09/05 05:37:51;;;;;;;6.40;3.08;;;;;;;17.83;41.95;99810.06;5149006;27;20034;-67
2022/09/05 05:40:24;;;;;;;1.55;1.23;;;;;;;17.82;41.93;99811.06;5141665;27;20039;-66
2022/09/05 05:42:50;;;;;;;1.90;1.20;;;;;;;17.84;42.02;99817.09;5140776;27;20027;-67
2022/09/05 05:45:25;;;;;;;3.60;1.48;;;;;;;17.84;42.06;99817.09;5148888;27;20015;-69
2022/09/05 05:47:55;;;;;;;3.33;1.42;;;;;;;17.84;42.10;99817.09;5148390;27;20156;-68
2022/09/05 05:50:32;;;;;;;3.08;1.35;;;;;;;17.83;42.41;99810.06;5144544;27;20195;-69
2022/09/05 05:53:09;;;;;;;2.53;1.50;;;;;;;17.83;42.23;99816.25;5140199;27;20115;-66
2022/09/05 05:56:02;;;;;;;4.68;1.63;;;;;;;17.84;42.25;99814.44;5148658;27;20034;-66
2022/09/05 05:58:44;;;;;;;2.38;2.05;;;;;;;17.85;42.24;99818.78;5148713;27;20083;-69
2022/09/05 06:01:44;;;;;;;2.20;1.50;;;;;;;17.88;42.12;99825.66;5140442;27;20027;-66
2022/09/05 06:04:36;;;;;;;4.63;1.48;;;;;;;17.90;42.21;99827.16;5127912;27;20043;-68
2022/09/05 06:07:08;;;;;;;3.40;1.45;;;;;;;17.92;42.07;99822.47;5127838;27;20040;-67
2022/09/05 06:10:11;;;;;;;3.65;1.50;;;;;;;17.98;41.84;99821.03;5127894;28;20012;-66
2022/09/05 06:13:10;;;;;;;2.75;1.95;;;;;;;17.99;41.91;99826.22;5129145;27;20027;-70
2022/09/05 06:15:48;;;;;;;2.67;1.75;;;;;;;18.03;41.91;99832.09;5145281;27;20232;-67
2022/09/05 06:18:35;;;;;;;5.32;1.77;;;;;;;18.06;41.79;99828.25;5148016;27;20023;-69
2022/09/05 06:21:29;;;;;;;3.03;1.70;;;;;;;18.07;41.72;99825.41;5145851;27;20059;-66
2022/09/05 06:24:17;;;;;;;3.40;2.15;;;;;;;18.09;41.57;99827.91;5127657;28;20076;-69
2022/09/05 06:27:11;;;;;;;5.45;2.22;;;;;;;18.10;41.53;99832.28;5135811;27;20027;-68
2022/09/05 06:29:43;;;;;;;3.42;1.88;;;;;;;18.14;41.56;99830.97;5150691;27;20059;-68
2022/09/05 06:32:42;;;;;;;6.10;2.15;;;;;;;18.16;41.51;99823.56;5145906;27;20221;-67
2022/09/05 06:35:49;;;;;;;4.07;1.58;;;;;;;18.18;41.40;99832.28;5148062;27;20023;-67
2022/09/05 06:38:20;;;;;;;4.07;2.35;;;;;;;18.22;41.26;99832.81;5064876;28;20031;-68
2022/09/05 06:41:24;;;;;;;2.70;1.83;;;;;;;18.26;41.23;99835.00;5065119;28;20036;-66
2022/09/05 06:44:14;;;;;;;2.67;1.77;;;;;;;18.30;41.22;99835.50;5101565;27;20098;-69
2022/09/05 06:46:42;;;;;;;3.35;1.58;;;;;;;18.34;41.25;99833.34;5147896;27;20124;-67
2022/09/05 06:49:18;;;;;;;2.47;1.50;;;;;;;18.37;41.22;99838.38;5168174;27;20043;-66
2022/09/05 06:52:02;;;;;;;4.63;1.60;;;;;;;18.39;41.10;99841.72;5164464;27;20094;-68
2022/09/05 06:55:02;;;;;;;4.05;1.95;;;;;;;18.41;41.17;99834.38;5143912;27;20035;-69
2022/09/05 06:57:45;;;;;;;4.28;1.35;;;;;;;18.41;41.21;99834.38;5116451;28;20031;-68
2022/09/05 07:00:29;;;;;;;4.22;1.42;;;;;;;18.43;41.11;99832.38;5147769;27;20236;-68
2022/09/05 07:03:17;;;;;;;4.53;1.92;;;;;;;18.46;41.14;99840.03;5145058;27;20027;-68
2022/09/05 07:05:43;;;;;;;2.80;1.85;;;;;;;18.48;40.95;99846.09;5147710;27;20027;-69
2022/09/05 07:08:21;;;;;;;4.53;2.00;;;;;;;18.50;40.75;99835.22;5147681;27;20019;-69
2022/09/05 07:11:14;;;;;;;4.45;1.85;;;;;;;18.50;40.83;99838.72;5147444;27;20042;-67
2022/09/05 07:13:54;;;;;;;5.10;1.85;;;;;;;18.52;40.84;99831.34;5134578;28;20049;-70
2022/09/05 07:17:06;;;;;;;12.60;2.30;;;;;;;18.53;40.74;99838.41;5147265;27;20022;-68
2022/09/05 07:19:34;;;;;;;2.42;1.60;;;;;;;18.57;40.70;99830.84;5044951;28;20104;-70
2022/09/05 07:22:06;;;;;;;2.42;1.67;;;;;;;18.59;40.82;99831.53;5135183;27;20063;-68
2022/09/05 07:24:36;;;;;;;3.47;1.15;;;;;;;18.61;40.89;99840.25;5147794;27;20133;-67
2022/09/05 07:27:05;;;;;;;5.50;1.92;;;;;;;18.63;40.65;99834.72;5150891;27;20035;-72
2022/09/05 07:29:35;;;;;;;3.97;1.42;;;;;;;18.64;40.80;99831.03;5151635;27;20055;-67
2022/09/05 07:32:05;;;;;;;2.70;1.55;;;;;;;18.63;40.78;99838.25;5151211;27;20050;-69
2022/09/05 07:34:33;;;;;;;4.47;1.40;;;;;;;18.65;40.77;99832.72;5151609;27;20031;-68
2022/09/05 07:37:15;;;;;;;2.22;1.33;;;;;;;18.65;40.81;99836.25;5150484;27;20027;-67
2022/09/05 07:39:48;;;;;;;2.72;1.30;;;;;;;18.67;40.67;99819.97;5150827;27;20034;-69
2022/09/05 07:42:22;;;;;;;2.05;1.35;;;;;;;18.67;40.51;99823.53;5151154;27;20035;-66
2022/09/05 07:45:00;;;;;;;2.10;1.38;;;;;;;18.66;40.53;99819.16;5151151;27;20038;-69
2022/09/05 07:47:42;;;;;;;2.33;1.42;;;;;;;18.64;40.69;99814.94;5151203;27;20177;-65
2022/09/05 07:50:09;;;;;;;3.55;1.40;;;;;;;18.63;40.75;99826.66;5151206;27;20238;-68
2022/09/05 07:52:43;;;;;;;1.17;0.73;;;;;;;18.61;40.79;99819.63;5150987;27;20042;-68
2022/09/05 07:55:34;;;;;;;2.42;1.40;;;;;;;18.59;41.05;99818.13;5150625;27;20086;-67
2022/09/05 07:58:06;;;;;;;1.23;1.00;;;;;;;18.57;41.11;99818.31;5150271;27;20251;-70
2022/09/05 08:00:33;;;;;;;1.23;0.90;;;;;;;18.56;41.26;99816.63;5150900;27;20070;-68
2022/09/05 08:03:11;;;;;;;1.80;0.82;;;;;;;18.55;41.75;99823.00;5147269;27;20043;-69
2022/09/05 08:05:46;;;;;;;1.15;0.80;;;;;;;18.55;41.86;99828.34;5130347;27;20262;-66
2022/09/05 08:08:26;;;;;;;1.92;0.93;;;;;;;18.56;42.07;99827.34;5150661;27;20132;-68
2022/09/05 08:11:02;;;;;;;2.90;1.08;;;;;;;18.55;41.99;99814.97;5150339;27;20277;-69
2022/09/05 08:13:55;;;;;;;1.98;0.80;;;;;;;18.57;42.08;99822.81;5151090;27;20035;-67
2022/09/05 08:16:23;;;;;;;1.80;1.13;;;;;;;18.57;42.03;99823.66;5166057;27;20039;-66
2022/09/05 08:19:08;;;;;;;1.73;0.90;;;;;;;18.59;42.15;99810.94;5150381;27;20027;-68
2022/09/05 08:21:44;;;;;;;2.03;1.17;;;;;;;18.60;41.71;99806.41;5150290;27;20039;-66
2022/09/05 08:24:14;;;;;;;1.33;0.68;;;;;;;18.61;41.96;99806.22;5149991;27;20238;-69
2022/09/05 08:27:01;;;;;;;1.70;0.90;;;;;;;18.64;41.93;99806.91;5152092;27;20022;-70
2022/09/05 08:29:35;;;;;;;3.38;1.20;;;;;;;18.64;41.95;99809.59;5153319;27;20130;-68
2022/09/05 08:32:10;;;;;;;2.22;1.30;;;;;;;18.60;41.75;99801.06;5150199;27;20034;-67
2022/09/05 08:34:47;;;;;;;2.13;1.10;;;;;;;18.59;41.81;99804.72;5149883;27;20266;-69
2022/09/05 08:37:21;;;;;;;3.40;1.38;;;;;;;18.55;41.87;99804.25;5148375;27;20108;-67
2022/09/05 08:39:51;;;;;;;2.65;1.05;;;;;;;18.53;42.07;99798.19;5148743;27;20174;-68
2022/09/05 08:42:24;;;;;;;9.00;1.43;;;;;;;18.54;41.81;99804.38;5149448;27;20031;-69
2022/09/05 08:45:25;;;;;;;4.05;1.63;;;;;;;18.51;41.63;99791.34;5150191;27;20038;-68
2022/09/05 08:48:08;;;;;;;1.07;0.67;;;;;;;18.44;41.76;99801.88;5149848;27;20026;-68
2022/09/05 08:51:08;;;;;;;5.22;1.65;;;;;;;18.39;41.36;99798.84;5149847;27;20051;-66
2022/09/05 08:53:45;;;;;;;2.28;1.20;;;;;;;18.33;41.67;99808.41;5148326;27;20035;-70
2022/09/05 08:56:20;;;;;;;3.33;0.95;;;;;;;18.29;41.66;99797.19;5159129;27;20031;-71
2022/09/05 08:58:55;;;;;;;3.20;1.45;;;;;;;18.25;41.73;99801.19;5156070;27;20027;-71
2022/09/05 09:01:29;;;;;;;3.42;1.10;;;;;;;18.22;41.74;99798.00;5131038;27;20136;-70
2022/09/05 09:04:27;;;;;;;3.22;1.08;;;;;;;18.18;41.61;99800.16;5149655;27;20023;-66
2022/09/05 09:07:23;;;;;;;2.60;1.13;;;;;;;18.15;41.78;99805.84;5150947;27;20035;-69
2022/09/05 09:10:42;;;;;;;1.52;1.20;;;;;;;18.14;41.67;99807.69;5149442;27;20099;-66
2022/09/05 09:13:51;;;;;;;2.00;1.40;;;;;;;18.15;41.63;99795.16;5113774;27;20043;-68
2022/09/05 09:17:01;;;;;;;6.45;2.30;;;;;;;18.14;41.80;99801.50;5121180;27;20248;-68
2022/09/05 09:19:51;;;;;;;4.28;1.60;;;;;;;18.13;41.88;99789.94;5129347;27;20039;-66
2022/09/05 09:22:32;;;;;;;5.23;2.07;;;;;;;18.15;42.29;99793.28;5151169;27;20057;-70
2022/09/05 09:25:09;;;;;;;3.20;2.17;;;;;;;18.18;42.23;99785.94;5151712;27;20051;-71
2022/09/05 09:27:37;;;;;;;5.13;2.17;;;;;;;18.17;42.44;99784.25;5149009;27;20102;-67
2022/09/05 09:30:05;;;;;;;3.58;2.30;;;;;;;18.18;42.29;99784.09;5148488;27;20038;-69
2022/09/05 09:32:43;;;;;;;3.85;1.60;;;;;;;18.22;42.07;99785.44;5147861;27;20027;-67
2022/09/05 09:35:26;;;;;;;4.18;2.53;;;;;;;18.24;42.33;99788.78;5148486;27;20082;-69
2022/09/05 09:38:16;;;;;;;3.70;1.85;;;;;;;18.27;42.19;99784.94;5149440;27;20050;-67
2022/09/05 09:40:44;;;;;;;7.35;1.77;;;;;;;18.28;42.41;99784.78;5148499;27;20085;-67
2022/09/05 09:43:47;;;;;;;2.72;2.13;;;;;;;18.31;42.10;99786.28;5142844;27;20145;-67
2022/09/05 09:46:18;;;;;;;6.20;1.85;;;;;;;18.30;42.38;99782.78;5117295;27;20150;-68
2022/09/05 09:49:08;;;;;;;2.70;1.25;;;;;;;18.27;42.02;99780.44;5147902;27;20019;-69
2022/09/05 09:51:50;;;;;;;2.70;1.35;;;;;;;18.27;42.02;99775.06;5149330;27;20035;-69
2022/09/05 09:54:34;;;;;;;2.50;1.40;;;;;;;18.28;42.16;99778.56;5147483;27;20023;-70
2022/09/05 09:57:29;;;;;;;4.32;1.70;;;;;;;18.31;42.22;99780.94;5146521;27;20162;-67
2022/09/05 10:00:37;;;;;;;6.75;2.80;;;;;;;18.32;42.00;99776.41;5144396;27;20022;-66
2022/09/05 10:03:26;;;;;;;17.90;5.18;;;;;;;18.33;42.16;99767.38;5109996;28;20221;-68
2022/09/05 10:06:11;;;;;;;69.50;16.38;;;;;;;18.33;42.84;99778.94;5127716;27;20100;-70
2022/09/05 10:09:07;;;;;;;111.88;26.90;;;;;;;18.30;43.46;99766.72;5131685;27;20023;-69
2022/09/05 10:11:44;;;;;;;96.25;29.30;;;;;;;18.29;43.89;99777.56;5148306;27;20019;-70
2022/09/05 10:14:22;;;;;;;117.72;28.63;;;;;;;18.26;43.90;99772.53;5144676;27;20018;-72
2022/09/05 10:17:09;;;;;;;107.25;27.63;;;;;;;18.23;44.16;99768.38;5127518;27;20057;-67
2022/09/05 10:20:05;;;;;;;85.47;26.17;;;;;;;18.23;44.02;99767.53;5127949;27;20034;-69
2022/09/05 10:22:48;;;;;;;91.35;26.45;;;;;;;18.22;44.09;99761.34;5147988;27;20110;-69
2022/09/05 10:25:27;;;;;;;59.90;20.05;;;;;;;18.23;43.99;99767.53;5146217;27;20236;-66
2022/09/05 10:28:11;;;;;;;64.45;19.27;;;;;;;18.26;43.89;99765.38;5148087;27;20061;-72
2022/09/05 10:30:44;;;;;;;62.13;19.02;;;;;;;18.24;43.92;99770.03;5147971;27;20019;-68
2022/09/05 10:33:13;;;;;;;57.85;15.40;;;;;;;18.22;43.63;99764.00;5148125;27;20090;-69
2022/09/05 10:35:48;;;;;;;55.80;17.27;;;;;;;18.20;43.77;99760.66;5147941;27;20094;-68
2022/09/05 10:38:23;;;;;;;37.92;13.07;;;;;;;18.20;43.38;99763.34;5148042;27;20031;-69
2022/09/05 10:40:50;;;;;;;54.17;17.55;;;;;;;18.20;43.60;99767.88;5147911;27;20208;-68
2022/09/05 10:43:28;;;;;;;49.33;17.10;;;;;;;18.21;43.73;99758.84;5147865;27;20263;-68
2022/09/05 10:45:59;;;;;;;47.70;15.90;;;;;;;18.21;43.71;99764.19;5148050;27;20046;-64
2022/09/05 10:48:41;;;;;;;44.25;16.58;;;;;;;18.20;43.90;99757.97;5148157;27;20019;-66
2022/09/05 10:51:48;;;;;;;68.90;17.42;;;;;;;18.24;43.97;99758.47;5147811;27;20086;-66
2022/09/05 10:54:20;;;;;;;43.17;13.82;;;;;;;18.23;43.89;99757.66;5134440;27;20027;-70
2022/09/05 10:57:10;;;;;;;36.92;12.23;;;;;;;18.22;43.90;99752.47;5146844;27;20023;-70
2022/09/05 10:59:47;;;;;;;33.08;10.52;;;;;;;18.23;43.41;99756.84;5147767;27;20030;-70
2022/09/05 11:02:19;;;;;;;31.73;10.75;;;;;;;18.24;43.34;99758.47;5132958;27;20196;-69
2022/09/05 11:04:58;;;;;;;24.77;7.47;;;;;;;18.25;43.26;99749.44;5151980;27;20023;-67
2022/09/05 11:07:37;;;;;;;24.23;7.95;;;;;;;18.24;43.14;99742.41;5151872;27;20077;-69
2022/09/05 11:10:23;;;;;;;20.40;7.32;;;;;;;18.23;42.95;99743.44;5135736;27;20110;-69
2022/09/05 11:13:24;;;;;;;25.35;9.18;;;;;;;18.21;43.25;99742.75;5141953;27;20113;-68
2022/09/05 11:16:12;;;;;;;21.17;6.07;;;;;;;18.19;43.09;99744.75;5068817;28;20060;-71
2022/09/05 11:18:47;;;;;;;19.92;7.25;;;;;;;18.18;43.33;99751.94;5137306;27;20031;-69
2022/09/05 11:21:24;;;;;;;17.83;5.35;;;;;;;18.18;43.33;99753.81;5151525;27;20315;-71
2022/09/05 11:23:55;;;;;;;20.48;7.22;;;;;;;18.17;43.64;99749.44;5151248;27;20041;-68
2022/09/05 11:26:33;;;;;;;;;;;;;;;18.08;44.06;99753.94;5151482;27;20184;-67
2022/09/05 11:29:08;;;;;;;16.05;6.38;;;;;;;18.08;43.93;99752.13;5151655;27;19930;-69
2022/09/05 11:31:48;;;;;;;18.85;6.18;;;;;;;18.09;43.98;99747.59;5151534;27;20026;-67
2022/09/05 11:34:28;;;;;;;16.45;5.68;;;;;;;18.07;44.31;99750.44;5133469;27;20035;-71
2022/09/05 11:37:00;;;;;;;12.10;4.50;;;;;;;18.08;44.17;99751.28;5150922;27;20015;-66
2022/09/05 11:39:58;;;;;;;12.10;4.05;;;;;;;18.05;44.36;99739.06;5151360;27;20015;-66
2022/09/05 11:42:43;;;;;;;14.02;4.97;;;;;;;18.04;44.44;99737.38;5078379;27;20396;-69
2022/09/05 11:45:24;;;;;;;11.75;4.38;;;;;;;18.07;44.68;99734.38;5109456;27;20042;-71
2022/09/05 11:48:14;;;;;;;10.67;4.33;;;;;;;18.08;44.46;99735.19;5150984;27;20027;-68
2022/09/05 11:51:04;;;;;;;9.82;4.45;;;;;;;18.06;44.82;99730.03;5150937;27;20203;-70
2022/09/05 11:54:06;;;;;;;10.48;3.33;;;;;;;18.06;44.66;99729.16;5151137;27;20019;-70
2022/09/05 11:56:53;;;;;;;10.48;3.75;;;;;;;18.04;44.73;99729.34;5150951;27;20027;-68
2022/09/05 11:59:41;;;;;;;6.63;2.90;;;;;;;18.05;44.91;99728.34;5134565;27;20087;-70
2022/09/05 12:02:20;;;;;;;11.32;4.05;;;;;;;18.06;45.03;99726.50;5130161;27;20076;-69
2022/09/05 12:05:03;;;;;;;11.48;4.07;;;;;;;18.03;45.37;99725.00;5130289;28;20087;-68
2022/09/05 12:07:42;;;;;;;8.57;3.60;;;;;;;18.06;45.25;99719.31;5130189;27;20024;-69
2022/09/05 12:10:08;;;;;;;14.98;4.25;;;;;;;18.07;45.63;99721.00;5146866;27;20041;-70
2022/09/05 12:12:46;;;;;;;7.18;3.10;;;;;;;18.09;45.61;99715.47;5150422;27;20035;-68
2022/09/05 12:15:26;;;;;;;9.18;2.92;;;;;;;18.11;45.67;99711.59;5150683;27;20039;-68
2022/09/05 12:18:06;;;;;;;9.40;2.80;;;;;;;18.12;45.71;99705.25;5150745;27;20035;-67
2022/09/05 12:20:44;;;;;;;12.52;3.13;;;;;;;18.13;45.79;99696.22;5150204;27;20039;-68
2022/09/05 12:23:25;;;;;;;5.82;2.08;;;;;;;18.15;45.51;99704.91;5150140;27;20063;-68
2022/09/05 12:26:01;;;;;;;6.22;2.28;;;;;;;18.15;45.25;99701.41;5149762;27;20031;-68
2022/09/05 12:28:36;;;;;;;8.65;2.70;;;;;;;18.19;45.37;99699.25;5150455;27;20301;-68
2022/09/05 12:31:37;;;;;;;7.18;2.10;;;;;;;18.19;45.50;99692.03;5150348;27;20088;-68
2022/09/05 12:34:08;;;;;;;11.23;2.45;;;;;;;18.17;45.60;99691.34;5150024;27;20042;-68
2022/09/05 12:36:42;;;;;;;11.93;4.03;;;;;;;18.17;45.80;99691.34;5158376;27;20043;-71
2022/09/05 12:39:23;;;;;;;5.57;2.13;;;;;;;18.17;45.64;99693.22;5170973;27;20029;-68
2022/09/05 12:42:17;;;;;;;5.28;1.75;;;;;;;18.15;45.78;99685.34;5160627;27;20039;-69
2022/09/05 12:45:21;;;;;;;3.25;1.63;;;;;;;18.12;45.82;99680.31;5150166;27;20080;-69